Time;durP1;ratioP1;P1;durP2;ratioP2;P2;SDS_P1;SDS_P2;PMS_P1;PMS_P2;Temp;Humidity;BMP_temperature;BMP_pressure;BME280_temperature;BME280_humidity;BME280_pressure;Samples;Min_cycle;Max_cycle;Signal;HPM_P1;HPM_P2
2023/02/09 00:01:31;;;;;;;197.80;95.90;;;;;;;-10.98;64.81;99566.27;108799;1251;109388;-74
2023/02/09 00:04:01;;;;;;;188.40;91.30;;;;;;;-11.01;64.66;99560.59;108841;1251;100296;-74
2023/02/09 00:06:29;;;;;;;170.70;84.20;;;;;;;-11.02;64.66;99556.27;108793;1251;95837;-74
2023/02/09 00:08:59;;;;;;;165.30;91.30;;;;;;;-11.01;64.73;99553.29;108885;1251;96042;-74
2023/02/09 00:14:16;;;;;;;178.30;86.60;;;;;;;-11.05;64.90;99549.88;108664;1251;101586;-73
2023/02/09 00:16:45;;;;;;;173.80;96.10;;;;;;;-11.06;64.97;99549.36;108890;1251;100027;-76
2023/02/09 00:19:14;;;;;;;167.90;85.50;;;;;;;-11.06;64.98;99546.75;108858;1251;95590;-74
2023/02/09 00:21:42;;;;;;;161.60;91.10;;;;;;;-11.06;65.12;99546.23;108851;1251;96154;-73
2023/02/09 00:24:11;;;;;;;169.20;93.00;;;;;;;-11.05;65.18;99544.84;108916;1251;112534;-74
2023/02/09 00:26:40;;;;;;;170.00;88.60;;;;;;;-11.02;65.38;99548.27;108897;1251;110259;-74
2023/02/09 00:29:10;;;;;;;185.90;86.50;;;;;;;-11.04;65.33;99544.29;108832;1251;108727;-76
2023/02/09 00:31:38;;;;;;;221.30;99.40;;;;;;;-11.05;65.32;99545.17;108611;1251;95636;-74
2023/02/09 00:34:06;;;;;;;217.50;104.50;;;;;;;-11.07;65.17;99546.77;108787;1251;96038;-74
2023/02/09 00:36:35;;;;;;;219.00;104.00;;;;;;;-11.12;64.95;99543.92;108949;1250;110687;-74
2023/02/09 00:39:03;;;;;;;246.90;108.20;;;;;;;-11.16;65.02;99543.29;108833;1251;109866;-74
2023/02/09 00:44:19;;;;;;;265.10;109.90;;;;;;;-11.18;65.15;99545.58;108393;1256;95582;-74
2023/02/09 00:46:50;;;;;;;280.70;127.30;;;;;;;-11.29;65.14;99546.09;108439;1255;96252;-76
2023/02/09 00:49:19;;;;;;;225.40;99.50;;;;;;;-11.42;65.19;99541.44;108494;1257;110988;-74
2023/02/09 00:51:47;;;;;;;224.90;100.60;;;;;;;-11.49;65.23;99539.14;108447;1256;109735;-74
2023/02/09 00:54:19;;;;;;;205.10;109.80;;;;;;;-11.48;65.51;99533.90;108449;1256;108607;-76
2023/02/09 00:56:48;;;;;;;218.50;102.10;;;;;;;-11.47;65.35;99529.02;108332;1259;95619;-74
2023/02/09 00:59:16;;;;;;;218.30;104.50;;;;;;;-11.49;65.12;99528.71;108498;1256;96143;-76
2023/02/09 01:01:44;;;;;;;192.70;104.20;;;;;;;-11.50;65.24;99525.77;108279;1257;111712;-74
2023/02/09 01:04:12;;;;;;;201.60;97.60;;;;;;;-11.52;65.18;99523.88;108505;1256;109950;-74
2023/02/09 01:06:41;;;;;;;189.00;88.70;;;;;;;-11.56;65.20;99520.98;108422;1257;108335;-73
2023/02/09 01:09:09;;;;;;;174.50;82.40;;;;;;;-11.61;65.13;99517.95;108416;1256;95721;-74
2023/02/09 01:11:37;;;;;;;164.00;80.20;;;;;;;-11.65;65.04;99514.88;108413;1257;96080;-73
2023/02/09 01:14:05;;;;;;;165.40;81.50;;;;;;;-11.68;65.17;99510.91;108491;1257;111396;-74
2023/02/09 01:16:33;;;;;;;172.30;87.40;;;;;;;-11.70;65.32;99512.69;108492;1257;109752;-74
2023/02/09 01:19:03;;;;;;;171.30;98.60;;;;;;;-11.71;65.31;99509.24;108288;1256;108560;-75
2023/02/09 01:21:33;;;;;;;168.70;85.00;;;;;;;-11.71;65.29;99509.24;108590;1251;95637;-76
2023/02/09 01:24:01;;;;;;;159.10;79.70;;;;;;;-11.73;65.21;99503.54;108857;1251;96450;-75
2023/02/09 01:26:29;;;;;;;159.30;78.10;;;;;;;-11.75;65.25;99497.34;108918;1251;112064;-75
2023/02/09 01:28:57;;;;;;;151.90;84.80;;;;;;;-11.77;65.11;99497.38;108870;1251;100518;-73
2023/02/09 01:31:27;;;;;;;162.10;76.40;;;;;;;-11.79;65.03;99496.54;108908;1251;109290;-76
2023/02/09 01:33:57;;;;;;;153.60;73.80;;;;;;;-11.83;65.09;99496.08;108916;1251;95706;-73
2023/02/09 01:36:26;;;;;;;153.60;75.30;;;;;;;-11.87;65.06;99488.50;108877;1251;96523;-74
2023/02/09 01:38:56;;;;;;;149.60;69.80;;;;;;;-11.88;64.92;99485.73;108906;1251;111522;-74
2023/02/09 01:41:25;;;;;;;138.40;67.00;;;;;;;-11.90;64.85;99481.42;108667;1252;101269;-74
2023/02/09 01:44:05;;;;;;;156.30;72.40;;;;;;;-11.92;64.95;99480.23;108839;1251;108139;-75
2023/02/09 01:46:36;;;;;;;155.60;89.00;;;;;;;-11.92;65.08;99481.80;108560;1251;95634;-73
2023/02/09 01:49:12;;;;;;;174.70;87.10;;;;;;;-11.94;65.07;99476.28;108890;1251;96019;-74
2023/02/09 01:51:52;;;;;;;166.60;83.60;;;;;;;-11.95;65.15;99470.05;108892;1251;103190;-77
2023/02/09 01:54:25;;;;;;;170.50;81.20;;;;;;;-11.97;65.21;99461.59;108949;1251;101394;-73
2023/02/09 01:56:59;;;;;;;139.80;69.60;;;;;;;-12.00;65.45;99461.27;108865;1251;108645;-73
2023/02/09 01:59:29;;;;;;;127.10;62.30;;;;;;;-12.02;65.42;99454.70;108849;1251;95546;-75
2023/02/09 02:01:57;;;;;;;128.90;62.90;;;;;;;-12.04;65.55;99448.28;108870;1251;96295;-73
2023/02/09 02:04:25;;;;;;;122.70;62.20;;;;;;;-12.02;65.70;99450.00;108881;1251;111790;-75
2023/02/09 02:06:57;;;;;;;119.40;60.20;;;;;;;-11.99;65.75;99449.45;108882;1251;109901;-75
2023/02/09 02:09:26;;;;;;;139.30;67.90;;;;;;;-12.05;65.76;99448.84;108662;1251;100055;-74
2023/02/09 02:11:54;;;;;;;151.30;70.20;;;;;;;-12.15;65.71;99440.98;108848;1251;95605;-77
2023/02/09 02:14:40;;;;;;;149.70;71.70;;;;;;;-12.17;65.66;99437.55;108649;1253;96065;-73
2023/02/09 02:17:35;;;;;;;156.40;71.60;;;;;;;-12.18;65.44;99439.47;108825;1251;103296;-74
2023/02/09 02:20:18;;;;;;;177.30;80.50;;;;;;;-12.20;65.36;99439.00;108923;1251;101403;-73
2023/02/09 02:23:09;;;;;;;184.10;80.10;;;;;;;-12.21;65.46;99434.52;108855;1251;100032;-74
2023/02/09 02:26:05;;;;;;;171.10;76.20;;;;;;;-12.22;65.55;99432.96;108883;1251;95553;-74
2023/02/09 02:28:55;;;;;;;178.90;79.10;;;;;;;-12.26;65.48;99431.61;108853;1255;96107;-74
2023/02/09 02:31:45;;;;;;;143.20;65.60;;;;;;;-12.35;65.30;99428.28;108920;1251;103678;-76
2023/02/09 02:34:22;;;;;;;140.10;68.20;;;;;;;-12.42;65.41;99433.90;108907;1251;101277;-74
2023/02/09 02:37:06;;;;;;;149.10;63.30;;;;;;;-12.46;65.38;99435.36;108849;1251;100033;-73
2023/02/09 02:39:44;;;;;;;131.20;57.80;;;;;;;-12.50;65.29;99437.84;108791;1251;95640;-74
2023/02/09 02:45:42;;;;;;;132.20;57.30;;;;;;;-12.63;65.26;99441.48;108877;1251;103240;-74
2023/02/09 02:48:39;;;;;;;131.80;58.30;;;;;;;-12.69;65.26;99445.56;108863;1251;100404;-73
2023/02/09 02:51:10;;;;;;;128.30;54.90;;;;;;;-12.74;65.25;99444.23;108860;1251;100031;-74
2023/02/09 02:53:42;;;;;;;89.30;44.10;;;;;;;-12.79;65.24;99444.80;108789;1251;95601;-74
2023/02/09 02:56:20;;;;;;;131.10;56.80;;;;;;;-12.81;65.17;99447.95;108868;1251;96032;-74
2023/02/09 02:58:52;;;;;;;125.30;55.10;;;;;;;-12.81;65.22;99440.67;108701;1251;102556;-74
2023/02/09 03:01:25;;;;;;;124.30;57.10;;;;;;;-12.80;65.24;99448.83;108894;1251;109452;-77
2023/02/09 03:03:55;;;;;;;119.70;53.90;;;;;;;-12.83;65.11;99446.42;108847;1251;108552;-75
2023/02/09 03:06:23;;;;;;;121.10;57.20;;;;;;;-12.89;65.19;99445.27;108802;1251;96343;-75
2023/02/09 03:08:53;;;;;;;125.30;55.00;;;;;;;-12.94;65.25;99441.01;108912;1251;96025;-73
2023/02/09 03:11:24;;;;;;;110.10;51.30;;;;;;;-12.96;65.38;99441.73;108882;1251;112154;-74
2023/02/09 03:14:29;;;;;;;98.20;46.10;;;;;;;-12.94;65.43;99444.48;108872;1251;109924;-73
2023/02/09 03:17:35;;;;;;;100.30;46.90;;;;;;;-12.94;65.83;99442.23;108821;1251;99790;-73
2023/02/09 03:20:43;;;;;;;98.60;45.50;;;;;;;-12.99;65.83;99437.58;108025;1259;95608;-74
2023/02/09 03:23:27;;;;;;;95.60;45.60;;;;;;;-12.97;65.83;99439.48;107662;1268;96230;-73
2023/02/09 03:25:57;;;;;;;90.70;41.20;;;;;;;-12.98;66.13;99433.06;107270;1268;103858;-74
2023/02/09 03:28:30;;;;;;;89.80;43.30;;;;;;;-13.06;65.99;99427.63;107707;1267;109725;-76
2023/02/09 03:30:59;;;;;;;83.50;41.90;;;;;;;-13.08;65.91;99428.86;107655;1268;100099;-73
2023/02/09 03:33:31;;;;;;;86.50;44.00;;;;;;;-13.09;65.84;99429.73;107623;1268;95938;-73
2023/02/09 03:36:01;;;;;;;73.60;36.90;;;;;;;-13.11;65.75;99427.84;107641;1268;95657;-76
2023/02/09 03:38:29;;;;;;;111.10;50.60;;;;;;;-13.13;65.77;99428.56;107664;1268;104022;-73
2023/02/09 03:40:57;;;;;;;97.20;48.50;;;;;;;-13.13;65.87;99425.44;107651;1268;109808;-74
2023/02/09 03:44:25;;;;;;;101.70;46.00;;;;;;;-13.13;65.81;99423.54;107619;1268;108259;-77
2023/02/09 03:46:14;;;;;;;113.20;52.30;;;;;;;-13.16;65.95;99428.28;107659;1268;95654;-76
2023/02/09 03:48:42;;;;;;;111.00;51.80;;;;;;;-13.19;66.12;99425.73;107181;1268;96644;-73
2023/02/09 03:51:12;;;;;;;115.90;53.70;;;;;;;-13.18;66.26;99422.25;107658;1268;112087;-73
2023/02/09 03:53:40;;;;;;;107.60;50.70;;;;;;;-13.16;66.20;99420.81;107751;1260;101262;-73
2023/02/09 03:56:08;;;;;;;114.60;52.10;;;;;;;-13.14;65.93;99417.65;108182;1260;108251;-76
2023/02/09 03:58:37;;;;;;;126.50;55.10;;;;;;;-13.10;66.12;99418.13;108045;1261;96475;-74
2023/02/09 04:01:08;;;;;;;128.40;56.60;;;;;;;-13.07;65.93;99416.20;108728;1251;96128;-73
2023/02/09 04:03:38;;;;;;;125.40;56.80;;;;;;;-13.07;65.87;99415.52;108821;1251;112376;-73
2023/02/09 04:06:08;;;;;;;119.80;54.90;;;;;;;-13.06;65.81;99412.20;108862;1251;109755;-77
2023/02/09 04:08:37;;;;;;;118.70;56.30;;;;;;;-13.09;65.75;99410.84;108844;1251;108824;-73
2023/02/09 04:11:05;;;;;;;116.80;55.80;;;;;;;-13.14;65.69;99413.85;108846;1251;95535;-76
2023/02/09 04:13:33;;;;;;;120.60;52.20;;;;;;;-13.18;65.54;99414.27;108823;1251;96083;-75
2023/02/09 04:16:01;;;;;;;115.70;51.40;;;;;;;-13.19;65.68;99415.67;108884;1251;112124;-76
2023/02/09 04:18:32;;;;;;;122.70;52.70;;;;;;;-13.19;65.53;99415.84;108875;1251;109656;-73
2023/02/09 04:21:00;;;;;;;114.60;50.20;;;;;;;-13.20;65.73;99412.21;108806;1251;108038;-73
2023/02/09 04:23:28;;;;;;;107.20;48.00;;;;;;;-13.20;65.81;99410.14;108837;1251;95828;-73
2023/02/09 04:25:56;;;;;;;100.60;45.40;;;;;;;-13.24;65.97;99408.61;108612;1253;96290;-73
2023/02/09 04:28:24;;;;;;;106.70;50.10;;;;;;;-13.23;65.96;99409.30;108814;1251;112299;-73
2023/02/09 04:30:54;;;;;;;97.30;44.70;;;;;;;-13.23;65.69;99403.23;108888;1251;110043;-77
2023/02/09 04:33:24;;;;;;;95.60;44.50;;;;;;;-13.26;65.77;99406.38;108804;1251;108530;-74
2023/02/09 04:35:53;;;;;;;99.20;45.30;;;;;;;-13.28;65.59;99401.74;108818;1251;95901;-73
2023/02/09 04:38:22;;;;;;;94.40;43.30;;;;;;;-13.33;65.58;99398.50;108835;1251;96021;-73
2023/02/09 04:40:52;;;;;;;87.20;42.60;;;;;;;-13.37;65.52;99397.84;108669;1252;112148;-76
2023/02/09 04:43:21;;;;;;;89.10;41.00;;;;;;;-13.43;65.67;99400.16;108637;1254;110145;-74
2023/02/09 04:45:49;;;;;;;86.50;41.00;;;;;;;-13.51;65.58;99396.94;108806;1251;108627;-74
2023/02/09 04:48:20;;;;;;;93.60;43.10;;;;;;;-13.54;65.68;99399.59;108808;1251;95575;-74
2023/02/09 04:50:49;;;;;;;93.70;43.40;;;;;;;-13.58;65.67;99398.92;108844;1251;95734;-73
2023/02/09 04:53:18;;;;;;;115.70;49.30;;;;;;;-13.64;65.63;99400.02;108874;1251;112079;-76
2023/02/09 04:55:47;;;;;;;128.60;50.40;;;;;;;-13.69;65.66;99397.64;108627;1256;109135;-72
2023/02/09 05:01:04;;;;;;;120.20;48.30;;;;;;;-13.69;65.92;99397.48;108631;1251;95858;-73
2023/02/09 05:03:32;;;;;;;187.60;70.40;;;;;;;-13.68;65.77;99397.30;108858;1251;96409;-73
2023/02/09 05:06:04;;;;;;;258.10;101.80;;;;;;;-13.73;65.91;99394.05;108819;1250;111171;-73
2023/02/09 05:08:32;;;;;;;;;;;;;;;-13.72;66.03;99393.86;108876;1251;109490;-73
2023/02/09 05:11:01;;;;;;;258.00;98.00;;;;;;;-13.70;66.18;99396.96;108849;1251;108049;-73
2023/02/09 05:13:29;;;;;;;312.10;114.60;;;;;;;-13.70;66.29;99398.52;108844;1251;95569;-73
2023/02/09 05:15:57;;;;;;;285.90;110.60;;;;;;;-13.68;66.44;99395.21;108677;1251;96511;-74
2023/02/09 05:18:25;;;;;;;293.50;112.00;;;;;;;-13.66;66.07;99400.05;108819;1250;112144;-75
2023/02/09 05:20:53;;;;;;;290.90;105.90;;;;;;;-13.67;66.15;99394.70;108911;1251;110164;-73
2023/02/09 05:23:21;;;;;;;287.50;108.40;;;;;;;-13.66;66.21;99388.63;108806;1251;108825;-74
2023/02/09 05:25:49;;;;;;;295.60;132.20;;;;;;;-13.64;66.05;99386.67;108858;1251;95584;-73
2023/02/09 05:28:18;;;;;;;290.10;113.60;;;;;;;-13.63;65.90;99387.36;108875;1251;96118;-73
2023/02/09 05:30:52;;;;;;;287.60;106.40;;;;;;;-13.62;65.87;99388.56;108852;1251;112349;-73
2023/02/09 05:33:25;;;;;;;264.50;98.60;;;;;;;-13.65;65.87;99385.48;108838;1251;101241;-73
2023/02/09 05:35:55;;;;;;;237.50;92.60;;;;;;;-13.64;65.93;99385.84;108802;1251;108531;-73
2023/02/09 05:38:23;;;;;;;224.10;85.50;;;;;;;-13.64;65.95;99384.27;108841;1251;95571;-72
2023/02/09 05:40:51;;;;;;;192.40;79.90;;;;;;;-13.64;65.85;99378.90;108865;1251;96024;-72
2023/02/09 05:43:19;;;;;;;165.40;71.90;;;;;;;-13.65;65.89;99383.41;108886;1251;111649;-72
2023/02/09 05:45:47;;;;;;;154.90;61.40;;;;;;;-13.65;65.71;99385.50;108878;1251;110289;-76
2023/02/09 05:48:15;;;;;;;142.20;60.80;;;;;;;-13.68;65.68;99381.54;108848;1251;108469;-75
2023/02/09 05:50:43;;;;;;;138.10;56.20;;;;;;;-13.68;65.79;99380.50;108851;1251;95602;-74
2023/02/09 05:53:12;;;;;;;171.60;70.30;;;;;;;-13.67;65.77;99379.80;108636;1252;96018;-76
2023/02/09 05:55:40;;;;;;;177.40;74.00;;;;;;;-13.66;65.79;99383.27;108910;1251;112102;-73
2023/02/09 05:58:08;;;;;;;210.90;85.80;;;;;;;-13.69;65.86;99383.63;108862;1251;110157;-73
2023/02/09 06:00:36;;;;;;;252.90;107.40;;;;;;;-13.72;65.64;99390.05;108783;1251;108474;-74
2023/02/09 06:03:04;;;;;;;268.90;107.90;;;;;;;-13.77;65.73;99382.50;108602;1253;95581;-73
2023/02/09 06:05:32;;;;;;;278.50;109.60;;;;;;;-13.80;65.69;99382.70;108830;1251;96026;-74
2023/02/09 06:08:00;;;;;;;262.00;104.40;;;;;;;-13.82;65.70;99378.73;108853;1251;111975;-72
2023/02/09 06:10:28;;;;;;;261.60;99.40;;;;;;;-13.83;65.66;99377.00;108870;1251;109870;-72
2023/02/09 06:12:56;;;;;;;258.30;105.00;;;;;;;-13.82;65.56;99377.86;108775;1251;99943;-72
2023/02/09 06:15:25;;;;;;;277.30;106.30;;;;;;;-13.83;65.49;99375.27;108625;1252;95718;-72
2023/02/09 06:17:53;;;;;;;278.30;108.00;;;;;;;-13.84;65.71;99374.93;108872;1251;96251;-72
2023/02/09 06:20:21;;;;;;;228.00;92.60;;;;;;;-13.83;65.75;99376.66;108876;1251;112254;-72
2023/02/09 06:22:49;;;;;;;199.80;83.20;;;;;;;-13.84;65.78;99379.60;108843;1251;109996;-75
2023/02/09 06:25:17;;;;;;;158.10;70.00;;;;;;;-13.88;65.71;99378.25;108645;1254;107993;-73
2023/02/09 06:27:45;;;;;;;165.40;74.00;;;;;;;-13.89;65.79;99382.25;108646;1251;95602;-73
2023/02/09 06:30:14;;;;;;;148.90;68.70;;;;;;;-13.88;65.90;99382.40;108868;1251;96034;-73
2023/02/09 06:32:42;;;;;;;143.10;62.10;;;;;;;-13.86;65.84;99382.38;108843;1251;112156;-72
2023/02/09 06:35:10;;;;;;;142.20;63.70;;;;;;;-13.82;65.92;99381.33;108838;1251;109944;-72
2023/02/09 06:37:38;;;;;;;137.50;63.60;;;;;;;-13.78;66.13;99382.51;108578;1253;108204;-73
2023/02/09 06:40:06;;;;;;;158.80;76.40;;;;;;;-13.75;65.97;99382.13;108812;1251;95552;-75
2023/02/09 06:42:43;;;;;;;179.40;80.60;;;;;;;-13.72;66.11;99383.48;108862;1251;96039;-73
2023/02/09 06:45:13;;;;;;;183.80;88.30;;;;;;;-13.67;66.10;99382.23;108871;1251;113336;-76
2023/02/09 06:47:45;;;;;;;191.40;86.40;;;;;;;-13.63;66.31;99382.00;108803;1251;109960;-73
2023/02/09 06:50:15;;;;;;;176.30;82.90;;;;;;;-13.57;66.42;99377.96;108855;1251;107457;-75
2023/02/09 06:52:43;;;;;;;179.20;84.80;;;;;;;-13.51;66.36;99377.20;108811;1251;95636;-75
2023/02/09 06:55:12;;;;;;;199.60;89.50;;;;;;;-13.50;66.39;99372.16;108831;1251;97139;-72
2023/02/09 06:57:41;;;;;;;273.40;118.90;;;;;;;-13.50;66.55;99371.47;108865;1251;103211;-73
2023/02/09 07:00:09;;;;;;;329.40;145.00;;;;;;;-13.47;66.51;99369.71;108659;1251;109068;-71
2023/02/09 07:02:38;;;;;;;357.40;161.60;;;;;;;-13.42;66.69;99372.11;108828;1251;108872;-72
2023/02/09 07:05:06;;;;;;;350.50;159.00;;;;;;;-13.38;66.74;99371.17;108819;1251;95592;-72
2023/02/09 07:07:34;;;;;;;324.30;150.90;;;;;;;-13.32;66.78;99367.66;108804;1251;95680;-74
2023/02/09 07:10:05;;;;;;;290.20;138.90;;;;;;;-13.29;66.94;99367.45;108881;1250;112064;-73
2023/02/09 07:12:34;;;;;;;277.80;137.50;;;;;;;-13.23;67.07;99364.60;108810;1251;101027;-75
2023/02/09 07:15:02;;;;;;;275.90;133.10;;;;;;;-13.18;67.28;99365.42;108846;1251;108802;-75
2023/02/09 07:17:33;;;;;;;236.10;119.50;;;;;;;-13.12;67.63;99363.58;108841;1251;95498;-73
2023/02/09 07:20:01;;;;;;;202.80;104.90;;;;;;;-13.03;67.72;99362.25;108879;1251;95593;-76
2023/02/09 07:22:29;;;;;;;266.30;125.20;;;;;;;-12.98;67.97;99357.16;108879;1251;111264;-73
2023/02/09 07:24:57;;;;;;;221.90;111.80;;;;;;;-12.91;68.10;99350.65;108667;1251;108126;-73
2023/02/09 07:27:26;;;;;;;211.30;106.90;;;;;;;-12.81;68.09;99349.48;108848;1251;106720;-73
2023/02/09 07:29:54;;;;;;;208.10;104.50;;;;;;;-12.69;68.26;99352.96;108821;1251;95636;-74
2023/02/09 07:32:23;;;;;;;210.90;107.50;;;;;;;-12.57;68.29;99350.88;108662;1251;96670;-75
2023/02/09 07:34:51;;;;;;;200.30;104.30;;;;;;;-12.42;68.35;99348.92;108880;1251;112124;-73
2023/02/09 07:37:19;;;;;;;219.30;111.80;;;;;;;-12.28;68.48;99338.30;108890;1251;109969;-73
2023/02/09 07:39:48;;;;;;;211.60;107.60;;;;;;;-12.18;68.34;99340.55;108416;1251;108514;-75
2023/02/09 07:42:16;;;;;;;217.50;113.00;;;;;;;-12.10;68.30;99342.17;108765;1251;95637;-75
2023/02/09 07:44:44;;;;;;;207.40;108.70;;;;;;;-11.99;68.34;99345.97;108583;1252;183741;-72
2023/02/09 07:47:13;;;;;;;204.00;108.20;;;;;;;-11.88;68.57;99347.02;108641;1254;110951;-76
2023/02/09 07:49:41;;;;;;;208.10;108.60;;;;;;;-11.78;68.80;99344.39;108793;1251;110237;-73
2023/02/09 07:52:09;;;;;;;219.60;114.50;;;;;;;-11.67;68.77;99348.52;108827;1250;108508;-73
2023/02/09 07:54:37;;;;;;;227.90;117.30;;;;;;;-11.54;68.76;99346.71;108763;1251;95639;-76
2023/02/09 07:57:05;;;;;;;234.70;117.00;;;;;;;-11.40;68.93;99352.88;108870;1251;96016;-73
2023/02/09 07:59:34;;;;;;;279.70;134.00;;;;;;;-11.27;69.03;99353.33;108853;1251;110118;-73
2023/02/09 08:02:02;;;;;;;288.70;137.70;;;;;;;-11.12;69.14;99351.11;108824;1250;109745;-73
2023/02/09 08:04:31;;;;;;;267.10;131.90;;;;;;;-10.95;69.29;99350.41;108798;1254;108071;-75
2023/02/09 08:07:00;;;;;;;283.00;149.80;;;;;;;-10.77;69.31;99352.12;108845;1251;96437;-73
2023/02/09 08:09:29;;;;;;;255.40;130.70;;;;;;;-10.56;69.34;99354.09;108839;1251;95944;-75
2023/02/09 08:12:01;;;;;;;253.70;122.50;;;;;;;-10.34;69.54;99352.73;108848;1251;112528;-73
2023/02/09 08:14:38;;;;;;;248.80;125.00;;;;;;;-10.15;69.37;99345.46;108851;1251;110031;-73
2023/02/09 08:17:24;;;;;;;240.20;132.70;;;;;;;-9.95;69.56;99348.95;108822;1251;108393;-73
2023/02/09 08:20:06;;;;;;;240.80;133.10;;;;;;;-9.71;69.49;99346.43;108821;1251;95682;-74
2023/02/09 08:22:40;;;;;;;244.60;133.80;;;;;;;-9.49;69.37;99345.87;108912;1251;96160;-73
2023/02/09 08:25:09;;;;;;;267.40;142.70;;;;;;;-9.27;69.39;99346.66;108608;1251;111553;-73
2023/02/09 08:27:39;;;;;;;271.80;146.70;;;;;;;-9.03;69.19;99339.04;108877;1250;110369;-74
2023/02/09 08:30:08;;;;;;;273.10;146.60;;;;;;;-8.81;69.09;99335.25;108826;1251;108490;-74
2023/02/09 08:32:36;;;;;;;297.40;155.50;;;;;;;-8.61;69.13;99329.55;108863;1251;95630;-73
2023/02/09 08:35:05;;;;;;;303.60;157.10;;;;;;;-8.38;68.91;99324.52;108884;1251;96016;-74
2023/02/09 08:37:33;;;;;;;285.10;147.50;;;;;;;-8.19;69.02;99321.23;108881;1251;111973;-74
2023/02/09 08:40:01;;;;;;;230.20;120.80;;;;;;;-7.99;68.94;99316.39;108859;1251;109861;-74
2023/02/09 08:42:29;;;;;;;211.90;102.70;;;;;;;-7.80;69.01;99314.18;108842;1251;108106;-74
2023/02/09 08:44:57;;;;;;;162.90;87.70;;;;;;;-7.59;69.02;99312.44;108845;1251;95650;-74
2023/02/09 08:47:25;;;;;;;153.00;81.80;;;;;;;-7.37;68.98;99310.95;108894;1251;97105;-74
2023/02/09 08:49:54;;;;;;;156.90;86.70;;;;;;;-7.14;68.95;99307.69;108891;1251;111156;-74
2023/02/09 08:52:22;;;;;;;158.20;86.90;;;;;;;-6.92;69.05;99306.16;108789;1250;108988;-75
2023/02/09 08:54:50;;;;;;;158.60;86.60;;;;;;;-6.68;68.81;99298.59;108829;1251;108147;-74
2023/02/09 08:57:18;;;;;;;164.60;86.80;;;;;;;-6.45;68.89;99300.48;108838;1251;95628;-74
2023/02/09 08:59:46;;;;;;;153.30;80.70;;;;;;;-6.19;68.75;99291.77;108848;1251;96016;-74
2023/02/09 09:02:14;;;;;;;140.60;75.10;;;;;;;-5.93;68.81;99295.45;108908;1251;110861;-75
2023/02/09 09:04:42;;;;;;;143.20;73.60;;;;;;;-5.70;68.76;99294.08;108660;1253;101390;-74
2023/02/09 09:07:10;;;;;;;163.20;83.00;;;;;;;-5.42;68.68;99293.23;108800;1251;99952;-75
2023/02/09 09:09:38;;;;;;;157.60;79.70;;;;;;;-5.15;68.48;99284.11;108618;1254;96559;-75
2023/02/09 09:12:06;;;;;;;155.00;78.50;;;;;;;-4.88;68.51;99281.16;108747;1251;96014;-75
2023/02/09 09:14:35;;;;;;;153.30;77.90;;;;;;;-4.55;68.55;99282.09;108878;1250;102398;-75
2023/02/09 09:17:03;;;;;;;164.90;80.20;;;;;;;-4.24;68.20;99279.70;108841;1251;101531;-75
2023/02/09 09:19:31;;;;;;;131.10;65.80;;;;;;;-3.96;68.00;99278.88;108650;1252;99866;-75
2023/02/09 09:22:02;;;;;;;98.70;50.70;;;;;;;-3.67;67.90;99276.38;108826;1251;95572;-76
2023/02/09 09:24:31;;;;;;;75.60;39.60;;;;;;;-3.40;67.60;99272.66;108903;1251;95992;-76
2023/02/09 09:26:59;;;;;;;71.90;36.90;;;;;;;-3.14;67.14;99272.38;108964;1250;103438;-75
2023/02/09 09:29:27;;;;;;;75.20;37.90;;;;;;;-2.86;67.07;99265.08;108895;1251;101268;-75
2023/02/09 09:31:55;;;;;;;76.70;38.40;;;;;;;-2.49;66.97;99267.95;108837;1251;99942;-75
2023/02/09 09:34:23;;;;;;;86.10;43.20;;;;;;;-2.11;66.74;99268.45;108675;1251;95698;-75
2023/02/09 09:36:51;;;;;;;85.40;44.50;;;;;;;-1.80;66.27;99269.48;108659;1253;96124;-75
2023/02/09 09:39:20;;;;;;;90.90;47.70;;;;;;;-1.58;65.84;99270.30;108855;1251;103622;-74
2023/02/09 09:41:52;;;;;;;73.60;36.90;;;;;;;-1.28;65.53;99264.63;108816;1252;101384;-76
2023/02/09 09:44:31;;;;;;;70.00;34.70;;;;;;;-0.95;65.07;99263.70;108812;1252;99913;-74
2023/02/09 09:47:04;;;;;;;70.20;34.50;;;;;;;-0.62;64.72;99266.71;108774;1253;95723;-77
2023/02/09 09:49:33;;;;;;;56.10;31.00;;;;;;;-0.37;64.10;99268.33;108811;1252;96060;-76
2023/02/09 09:52:25;;;;;;;55.10;30.10;;;;;;;-0.15;63.71;99266.39;108884;1253;103656;-76
2023/02/09 09:54:53;;;;;;;55.20;30.60;;;;;;;0.10;63.23;99263.14;108834;1252;101260;-76
2023/02/09 09:57:26;;;;;;;98.20;45.90;;;;;;;0.35;63.01;99261.45;108769;1252;99566;-76
2023/02/09 09:59:55;;;;;;;73.70;36.90;;;;;;;0.61;62.30;99259.36;108731;1252;95597;-75
2023/02/09 10:02:34;;;;;;;56.10;29.70;;;;;;;0.84;62.01;99256.70;108796;1251;96679;-76
2023/02/09 10:05:19;;;;;;;48.50;25.00;;;;;;;1.11;61.68;99249.17;108775;1253;103486;-76
2023/02/09 10:07:59;;;;;;;48.50;23.60;;;;;;;1.37;61.36;99243.56;108796;1251;101329;-76
2023/02/09 10:10:51;;;;;;;49.60;26.00;;;;;;;1.58;60.74;99240.27;108514;1254;99635;-76
2023/02/09 10:13:25;;;;;;;47.80;25.00;;;;;;;1.77;60.50;99237.82;108792;1251;95572;-75
2023/02/09 10:15:56;;;;;;;50.00;24.30;;;;;;;2.05;60.66;99240.88;108862;1252;96028;-75
2023/02/09 10:18:25;;;;;;;38.00;21.50;;;;;;;2.33;59.78;99240.21;108672;1251;103309;-76
2023/02/09 10:21:12;;;;;;;35.60;20.10;;;;;;;2.51;59.28;99232.26;108865;1252;101112;-76
2023/02/09 10:23:50;;;;;;;32.00;18.10;;;;;;;2.70;58.93;99227.30;108838;1252;100191;-76
2023/02/09 10:26:22;;;;;;;30.10;18.20;;;;;;;2.86;58.54;99224.45;108787;1253;95659;-76
2023/02/09 10:28:56;;;;;;;31.10;17.50;;;;;;;3.07;58.30;99220.48;108657;1253;95745;-75
2023/02/09 10:32:03;;;;;;;27.10;15.90;;;;;;;3.37;57.71;99218.60;108783;1251;102287;-75
2023/02/09 10:34:37;;;;;;;29.40;15.50;;;;;;;3.57;57.25;99213.80;108349;1256;101414;-76
2023/02/09 10:37:34;;;;;;;32.30;17.10;;;;;;;3.72;56.58;99210.42;108319;1258;100011;-76
2023/02/09 10:40:17;;;;;;;28.90;15.30;;;;;;;4.00;56.09;99206.73;107841;1265;96134;-76
2023/02/09 10:42:57;;;;;;;27.10;15.40;;;;;;;4.24;56.08;99204.71;107843;1266;96382;-76
2023/02/09 10:45:42;;;;;;;30.30;17.00;;;;;;;4.56;56.20;99198.62;107698;1265;103800;-75
2023/02/09 10:48:13;;;;;;;47.60;25.60;;;;;;;4.93;55.50;99191.84;107595;1265;101419;-75
2023/02/09 10:51:05;;;;;;;51.90;30.20;;;;;;;5.27;55.30;99189.91;107839;1267;99984;-75
2023/02/09 10:53:39;;;;;;;45.80;25.00;;;;;;;5.60;54.42;99183.75;107821;1265;95719;-76
2023/02/09 10:56:15;;;;;;;53.40;26.60;;;;;;;5.81;53.62;99179.95;107832;1266;95741;-76
2023/02/09 10:58:51;;;;;;;58.70;30.50;;;;;;;6.06;53.67;99176.40;107859;1265;103393;-76
2023/02/09 11:01:24;;;;;;;43.50;24.70;;;;;;;6.39;53.08;99167.11;107677;1267;101439;-76
2023/02/09 11:04:02;;;;;;;36.90;20.50;;;;;;;6.60;52.03;99163.70;107811;1266;99970;-76
2023/02/09 11:06:50;;;;;;;35.30;18.80;;;;;;;6.74;51.22;99159.52;107805;1266;95682;-77
2023/02/09 11:09:29;;;;;;;26.80;15.70;;;;;;;6.90;51.01;99160.27;107839;1267;95672;-76
2023/02/09 11:11:58;;;;;;;33.40;18.80;;;;;;;7.22;50.69;99150.08;108149;1259;102341;-77
2023/02/09 11:14:26;;;;;;;36.20;20.60;;;;;;;7.49;49.99;99147.70;108269;1259;101258;-77
2023/02/09 11:17:11;;;;;;;33.00;19.50;;;;;;;7.70;49.36;99143.54;108405;1251;98454;-77
2023/02/09 11:19:50;;;;;;;28.20;16.70;;;;;;;7.77;48.85;99142.53;108877;1251;95576;-77
2023/02/09 11:22:29;;;;;;;23.50;13.70;;;;;;;7.89;48.57;99142.02;108906;1251;96429;-77
2023/02/09 11:25:16;;;;;;;27.00;15.70;;;;;;;7.94;48.01;99139.37;108618;1252;102628;-77